sensor_id;sensor_type;location;lat;lon;timestamp;pressure;altitude;pressure_sealevel;temperature;humidity
69035;BME280;56091;55.756;37.412;2023-02-16T00:00:44;99834.03;;;-3.42;66.31
69035;BME280;56091;55.756;37.412;2023-02-16T00:05:47;99869.41;;;-3.17;66.76
69035;BME280;56091;55.756;37.412;2023-02-16T00:11:23;99883.81;;;-3.29;67.41
69035;BME280;56091;55.756;37.412;2023-02-16T00:16:46;99848.59;;;-3.56;68.08
69035;BME280;56091;55.756;37.412;2023-02-16T00:21:48;99873.09;;;-3.91;69.34
69035;BME280;56091;55.756;37.412;2023-02-16T00:26:49;99848.16;;;-4.24;70.60
69035;BME280;56091;55.756;37.412;2023-02-16T00:31:50;99843.06;;;-4.36;70.91
69035;BME280;56091;55.756;37.412;2023-02-16T00:36:52;99856.06;;;-4.24;70.75
69035;BME280;56091;55.756;37.412;2023-02-16T00:42:02;99865.09;;;-3.99;70.56
69035;BME280;56091;55.756;37.412;2023-02-16T00:57:47;99867.25;;;-3.85;69.68
69035;BME280;56091;55.756;37.412;2023-02-16T01:02:51;99862.25;;;-3.88;69.26
69035;BME280;56091;55.756;37.412;2023-02-16T01:07:53;99867.13;;;-3.93;69.29
69035;BME280;56091;55.756;37.412;2023-02-16T01:13:13;99854.94;;;-3.94;68.88
69035;BME280;56091;55.756;37.412;2023-02-16T01:18:16;99854.16;;;-4.04;68.88
69035;BME280;56091;55.756;37.412;2023-02-16T01:23:18;99856.22;;;-3.98;69.36
69035;BME280;56091;55.756;37.412;2023-02-16T01:28:21;99868.00;;;-4.02;69.90
69035;BME280;56091;55.756;37.412;2023-02-16T01:33:22;99862.84;;;-3.94;69.95
69035;BME280;56091;55.756;37.412;2023-02-16T01:38:26;99863.72;;;-4.03;69.89
69035;BME280;56091;55.756;37.412;2023-02-16T01:43:43;99869.41;;;-3.98;70.08
69035;BME280;56091;55.756;37.412;2023-02-16T01:48:46;99874.16;;;-3.84;69.39
69035;BME280;56091;55.756;37.412;2023-02-16T01:54:30;99874.75;;;-3.90;70.27
69035;BME280;56091;55.756;37.412;2023-02-16T02:04:58;99876.59;;;-4.28;71.58
69035;BME280;56091;55.756;37.412;2023-02-16T02:10:29;99880.59;;;-4.24;71.18
69035;BME280;56091;55.756;37.412;2023-02-16T02:15:34;99869.38;;;-4.73;72.98
69035;BME280;56091;55.756;37.412;2023-02-16T02:32:19;99875.31;;;-4.71;74.03
69035;BME280;56091;55.756;37.412;2023-02-16T02:47:51;99873.34;;;-4.59;73.96
69035;BME280;56091;55.756;37.412;2023-02-16T02:53:00;99870.72;;;-4.59;74.24
69035;BME280;56091;55.756;37.412;2023-02-16T02:58:02;99894.75;;;-4.35;74.47
69035;BME280;56091;55.756;37.412;2023-02-16T03:03:26;99885.13;;;-4.44;73.54
69035;BME280;56091;55.756;37.412;2023-02-16T03:08:34;99888.94;;;-4.28;73.63
69035;BME280;56091;55.756;37.412;2023-02-16T03:13:38;99877.91;;;-4.52;73.90
69035;BME280;56091;55.756;37.412;2023-02-16T03:18:42;99871.25;;;-4.56;75.53
69035;BME280;56091;55.756;37.412;2023-02-16T03:24:07;99873.81;;;-4.74;75.61
69035;BME280;56091;55.756;37.412;2023-02-16T03:29:28;99860.50;;;-4.82;76.24
69035;BME280;56091;55.756;37.412;2023-02-16T03:34:29;99875.78;;;-4.85;76.52
69035;BME280;56091;55.756;37.412;2023-02-16T03:39:31;99867.03;;;-4.96;76.94
69035;BME280;56091;55.756;37.412;2023-02-16T03:44:52;99845.03;;;-5.14;77.42
69035;BME280;56091;55.756;37.412;2023-02-16T03:49:53;99862.94;;;-5.18;77.72
69035;BME280;56091;55.756;37.412;2023-02-16T03:54:54;99860.00;;;-5.15;78.10
69035;BME280;56091;55.756;37.412;2023-02-16T03:59:54;99876.75;;;-5.06;77.77
69035;BME280;56091;55.756;37.412;2023-02-16T04:04:55;99869.72;;;-5.25;77.94
69035;BME280;56091;55.756;37.412;2023-02-16T04:09:56;99858.06;;;-5.22;78.23
69035;BME280;56091;55.756;37.412;2023-02-16T04:14:57;99859.31;;;-5.07;77.97
69035;BME280;56091;55.756;37.412;2023-02-16T04:19:58;99855.16;;;-5.19;78.09
69035;BME280;56091;55.756;37.412;2023-02-16T04:24:59;99862.47;;;-4.94;78.03
69035;BME280;56091;55.756;37.412;2023-02-16T04:29:59;99858.28;;;-4.77;77.85
69035;BME280;56091;55.756;37.412;2023-02-16T04:35:00;99862.47;;;-4.74;76.40
69035;BME280;56091;55.756;37.412;2023-02-16T04:40:02;99854.44;;;-4.92;76.09
69035;BME280;56091;55.756;37.412;2023-02-16T04:45:03;99855.25;;;-4.92;76.87
69035;BME280;56091;55.756;37.412;2023-02-16T04:50:04;99826.78;;;-5.35;77.47
69035;BME280;56091;55.756;37.412;2023-02-16T04:55:06;99777.25;;;-5.59;77.23
69035;BME280;56091;55.756;37.412;2023-02-16T05:00:10;99855.41;;;-5.03;76.73
69035;BME280;56091;55.756;37.412;2023-02-16T05:05:13;99856.38;;;-4.94;76.53
69035;BME280;56091;55.756;37.412;2023-02-16T05:10:14;99851.06;;;-4.75;75.62
69035;BME280;56091;55.756;37.412;2023-02-16T05:15:15;99855.09;;;-4.61;74.81
69035;BME280;56091;55.756;37.412;2023-02-16T05:20:15;99851.22;;;-4.66;75.11
69035;BME280;56091;55.756;37.412;2023-02-16T05:25:16;99860.16;;;-4.40;74.95
69035;BME280;56091;55.756;37.412;2023-02-16T05:30:17;99845.56;;;-4.34;73.05
69035;BME280;56091;55.756;37.412;2023-02-16T05:35:19;99862.84;;;-3.94;74.58
69035;BME280;56091;55.756;37.412;2023-02-16T05:40:19;99868.31;;;-4.05;72.36
69035;BME280;56091;55.756;37.412;2023-02-16T05:45:20;99858.84;;;-3.98;71.69
69035;BME280;56091;55.756;37.412;2023-02-16T05:50:21;99867.78;;;-4.09;72.68
69035;BME280;56091;55.756;37.412;2023-02-16T05:55:23;99859.38;;;-3.95;72.59
69035;BME280;56091;55.756;37.412;2023-02-16T06:00:24;99864.63;;;-3.85;71.44
69035;BME280;56091;55.756;37.412;2023-02-16T06:05:25;99879.72;;;-4.15;71.85
69035;BME280;56091;55.756;37.412;2023-02-16T06:16:03;99871.03;;;-3.97;71.24
69035;BME280;56091;55.756;37.412;2023-02-16T06:21:04;99868.47;;;-3.79;70.90
69035;BME280;56091;55.756;37.412;2023-02-16T06:26:05;99852.19;;;-3.57;70.26
69035;BME280;56091;55.756;37.412;2023-02-16T06:31:06;99865.03;;;-3.44;69.22
69035;BME280;56091;55.756;37.412;2023-02-16T06:36:06;99862.84;;;-3.30;68.74
69035;BME280;56091;55.756;37.412;2023-02-16T06:41:08;99847.09;;;-3.22;68.13
69035;BME280;56091;55.756;37.412;2023-02-16T06:46:09;99855.69;;;-3.38;68.69
69035;BME280;56091;55.756;37.412;2023-02-16T06:51:10;99870.41;;;-3.36;68.16
69035;BME280;56091;55.756;37.412;2023-02-16T06:56:11;99868.66;;;-3.27;68.21
69035;BME280;56091;55.756;37.412;2023-02-16T07:01:12;99862.78;;;-3.39;68.41
69035;BME280;56091;55.756;37.412;2023-02-16T07:06:15;99841.50;;;-3.19;67.53
69035;BME280;56091;55.756;37.412;2023-02-16T07:11:16;99852.72;;;-2.99;66.04
69035;BME280;56091;55.756;37.412;2023-02-16T07:16:20;99855.88;;;-2.96;66.24
69035;BME280;56091;55.756;37.412;2023-02-16T07:21:21;99851.06;;;-3.00;66.04
69035;BME280;56091;55.756;37.412;2023-02-16T07:26:21;99850.09;;;-2.99;65.93
69035;BME280;56091;55.756;37.412;2023-02-16T07:31:22;99849.94;;;-2.98;65.82
69035;BME280;56091;55.756;37.412;2023-02-16T07:36:25;99839.22;;;-2.70;64.41
69035;BME280;56091;55.756;37.412;2023-02-16T07:41:26;99845.47;;;-3.15;65.08
69035;BME280;56091;55.756;37.412;2023-02-16T07:46:27;99846.91;;;-3.03;65.25
69035;BME280;56091;55.756;37.412;2023-02-16T07:51:30;99848.13;;;-3.15;65.69
69035;BME280;56091;55.756;37.412;2023-02-16T07:56:32;99840.25;;;-2.89;64.91
69035;BME280;56091;55.756;37.412;2023-02-16T08:01:33;99841.28;;;-3.26;64.79
69035;BME280;56091;55.756;37.412;2023-02-16T08:06:38;99843.03;;;-3.17;65.17
69035;BME280;56091;55.756;37.412;2023-02-16T08:11:39;99830.09;;;-3.02;64.67
69035;BME280;56091;55.756;37.412;2023-02-16T08:16:40;99813.22;;;-3.27;64.80
69035;BME280;56091;55.756;37.412;2023-02-16T08:21:40;99839.81;;;-3.02;64.09
69035;BME280;56091;55.756;37.412;2023-02-16T08:26:41;99841.53;;;-3.37;65.26
69035;BME280;56091;55.756;37.412;2023-02-16T08:31:43;99848.38;;;-3.44;66.61
69035;BME280;56091;55.756;37.412;2023-02-16T08:36:46;99841.00;;;-3.41;66.45
69035;BME280;56091;55.756;37.412;2023-02-16T08:41:53;99827.69;;;-2.69;65.34
69035;BME280;56091;55.756;37.412;2023-02-16T08:46:56;99825.53;;;-2.39;63.87
69035;BME280;56091;55.756;37.412;2023-02-16T08:51:58;99834.16;;;-2.37;63.61
69035;BME280;56091;55.756;37.412;2023-02-16T08:57:00;99832.38;;;-2.55;63.71
69035;BME280;56091;55.756;37.412;2023-02-16T09:02:02;99817.00;;;-2.85;64.90
69035;BME280;56091;55.756;37.412;2023-02-16T09:07:03;99817.25;;;-2.97;66.03
69035;BME280;56091;55.756;37.412;2023-02-16T09:12:04;99822.59;;;-2.88;65.93
69035;BME280;56091;55.756;37.412;2023-02-16T09:17:06;99823.53;;;-2.71;65.06
69035;BME280;56091;55.756;37.412;2023-02-16T09:22:07;99804.56;;;-2.75;64.69
69035;BME280;56091;55.756;37.412;2023-02-16T09:27:08;99752.72;;;-2.68;63.80
69035;BME280;56091;55.756;37.412;2023-02-16T09:32:09;99815.47;;;-1.93;62.93
69035;BME280;56091;55.756;37.412;2023-02-16T09:37:10;99794.38;;;-1.60;61.43
69035;BME280;56091;55.756;37.412;2023-02-16T09:42:31;99808.63;;;-1.53;59.98
69035;BME280;56091;55.756;37.412;2023-02-16T09:47:37;99811.38;;;-1.71;59.61
69035;BME280;56091;55.756;37.412;2023-02-16T09:52:52;99789.78;;;-1.50;59.94
69035;BME280;56091;55.756;37.412;2023-02-16T09:58:22;99803.34;;;-1.36;58.71
69035;BME280;56091;55.756;37.412;2023-02-16T10:03:49;99810.41;;;-1.62;58.80
69035;BME280;56091;55.756;37.412;2023-02-16T10:09:14;99805.81;;;-1.51;58.63
69035;BME280;56091;55.756;37.412;2023-02-16T10:19:46;99788.09;;;-1.59;57.88
69035;BME280;56091;55.756;37.412;2023-02-16T10:25:01;99791.25;;;-1.39;57.79
69035;BME280;56091;55.756;37.412;2023-02-16T10:30:20;99787.63;;;-1.38;55.33
69035;BME280;56091;55.756;37.412;2023-02-16T10:35:35;99788.28;;;-1.11;55.05
69035;BME280;56091;55.756;37.412;2023-02-16T10:45:55;99784.81;;;-1.04;54.76
69035;BME280;56091;55.756;37.412;2023-02-16T10:51:11;99788.59;;;-0.98;54.91
69035;BME280;56091;55.756;37.412;2023-02-16T10:56:36;99782.00;;;-1.19;54.96
69035;BME280;56091;55.756;37.412;2023-02-16T11:01:44;99781.97;;;-1.76;57.20
69035;BME280;56091;55.756;37.412;2023-02-16T11:07:00;99787.22;;;-1.92;57.91
69035;BME280;56091;55.756;37.412;2023-02-16T11:17:57;99786.25;;;-2.26;57.48
69035;BME280;56091;55.756;37.412;2023-02-16T11:28:33;99780.44;;;-1.95;56.46
69035;BME280;56091;55.756;37.412;2023-02-16T11:33:36;99775.16;;;-2.38;56.73
69035;BME280;56091;55.756;37.412;2023-02-16T11:38:37;99763.41;;;-2.43;56.38
69035;BME280;56091;55.756;37.412;2023-02-16T11:43:40;99758.50;;;-2.30;55.80
69035;BME280;56091;55.756;37.412;2023-02-16T11:48:42;99740.38;;;-2.17;54.78
69035;BME280;56091;55.756;37.412;2023-02-16T11:53:44;99773.84;;;-1.91;53.80
69035;BME280;56091;55.756;37.412;2023-02-16T11:59:02;99765.25;;;-1.77;53.18
69035;BME280;56091;55.756;37.412;2023-02-16T12:09:56;99765.38;;;-2.45;54.27
69035;BME280;56091;55.756;37.412;2023-02-16T12:15:15;99763.69;;;-2.55;55.71
69035;BME280;56091;55.756;37.412;2023-02-16T12:25:38;99763.84;;;-2.22;55.82
69035;BME280;56091;55.756;37.412;2023-02-16T12:47:01;99772.75;;;-2.14;53.08
69035;BME280;56091;55.756;37.412;2023-02-16T12:52:17;99702.81;;;-2.79;53.95
69035;BME280;56091;55.756;37.412;2023-02-16T12:57:24;99777.84;;;-2.64;55.24
69035;BME280;56091;55.756;37.412;2023-02-16T13:02:37;99708.09;;;-3.40;56.59
69035;BME280;56091;55.756;37.412;2023-02-16T13:07:41;99778.41;;;-2.86;55.94
69035;BME280;56091;55.756;37.412;2023-02-16T13:13:00;99775.56;;;-2.85;56.01
69035;BME280;56091;55.756;37.412;2023-02-16T13:28:59;99776.25;;;-2.83;55.11
69035;BME280;56091;55.756;37.412;2023-02-16T13:44:40;99757.94;;;-3.10;54.39
69035;BME280;56091;55.756;37.412;2023-02-16T13:49:43;99766.88;;;-2.77;54.18
69035;BME280;56091;55.756;37.412;2023-02-16T13:54:48;99770.78;;;-2.89;54.82
69035;BME280;56091;55.756;37.412;2023-02-16T13:59:57;99769.22;;;-2.74;55.06
69035;BME280;56091;55.756;37.412;2023-02-16T14:05:01;99770.66;;;-2.80;55.65
69035;BME280;56091;55.756;37.412;2023-02-16T14:10:04;99773.03;;;-2.95;56.88
69035;BME280;56091;55.756;37.412;2023-02-16T14:15:17;99765.91;;;-3.02;57.02
69035;BME280;56091;55.756;37.412;2023-02-16T14:25:29;99772.00;;;-3.02;56.69
69035;BME280;56091;55.756;37.412;2023-02-16T14:41:01;99772.25;;;-3.13;56.64
69035;BME280;56091;55.756;37.412;2023-02-16T15:01:47;99774.75;;;-3.38;58.49
69035;BME280;56091;55.756;37.412;2023-02-16T15:06:54;99761.22;;;-3.35;58.53
69035;BME280;56091;55.756;37.412;2023-02-16T15:12:02;99759.00;;;-3.21;58.79
69035;BME280;56091;55.756;37.412;2023-02-16T15:17:42;99770.72;;;-3.24;58.50
69035;BME280;56091;55.756;37.412;2023-02-16T15:22:51;99771.00;;;-3.27;58.31
69035;BME280;56091;55.756;37.412;2023-02-16T15:33:13;99775.19;;;-3.24;58.43
69035;BME280;56091;55.756;37.412;2023-02-16T15:38:32;99761.75;;;-3.31;59.37
69035;BME280;56091;55.756;37.412;2023-02-16T15:43:48;99774.56;;;-3.36;59.47
69035;BME280;56091;55.756;37.412;2023-02-16T15:48:50;99778.25;;;-3.29;59.37
69035;BME280;56091;55.756;37.412;2023-02-16T15:53:52;99772.59;;;-3.34;59.38
69035;BME280;56091;55.756;37.412;2023-02-16T15:58:55;99771.56;;;-3.41;59.88
69035;BME280;56091;55.756;37.412;2023-02-16T16:04:04;99769.75;;;-3.41;60.34
69035;BME280;56091;55.756;37.412;2023-02-16T16:09:09;99771.88;;;-3.44;60.55
69035;BME280;56091;55.756;37.412;2023-02-16T16:14:14;99769.16;;;-3.53;60.51
69035;BME280;56091;55.756;37.412;2023-02-16T16:19:30;99766.22;;;-3.67;60.89
69035;BME280;56091;55.756;37.412;2023-02-16T16:24:35;99775.72;;;-3.75;61.59
69035;BME280;56091;55.756;37.412;2023-02-16T16:29:43;99777.00;;;-3.79;61.94
69035;BME280;56091;55.756;37.412;2023-02-16T16:34:45;99774.22;;;-3.77;62.08
69035;BME280;56091;55.756;37.412;2023-02-16T16:45:06;99755.38;;;-3.64;61.61
69035;BME280;56091;55.756;37.412;2023-02-16T16:55:28;99754.09;;;-3.60;61.46
69035;BME280;56091;55.756;37.412;2023-02-16T17:00:36;99761.84;;;-3.41;60.63
69035;BME280;56091;55.756;37.412;2023-02-16T17:05:38;99758.59;;;-3.35;59.14
69035;BME280;56091;55.756;37.412;2023-02-16T17:10:40;99766.13;;;-3.40;58.09
69035;BME280;56091;55.756;37.412;2023-02-16T17:20:51;99774.88;;;-3.57;59.21
69035;BME280;56091;55.756;37.412;2023-02-16T17:25:52;99776.09;;;-3.87;60.91
69035;BME280;56091;55.756;37.412;2023-02-16T17:30:52;99780.81;;;-3.91;61.53
69035;BME280;56091;55.756;37.412;2023-02-16T17:35:53;99780.03;;;-4.19;62.54
69035;BME280;56091;55.756;37.412;2023-02-16T17:40:55;99767.69;;;-4.46;62.79
69035;BME280;56091;55.756;37.412;2023-02-16T17:45:56;99763.78;;;-4.70;63.04
69035;BME280;56091;55.756;37.412;2023-02-16T17:51:03;99776.94;;;-4.70;63.47
69035;BME280;56091;55.756;37.412;2023-02-16T17:56:09;99772.53;;;-4.79;63.31
69035;BME280;56091;55.756;37.412;2023-02-16T18:01:15;99781.03;;;-4.85;63.54
69035;BME280;56091;55.756;37.412;2023-02-16T18:06:19;99792.41;;;-4.95;62.73
69035;BME280;56091;55.756;37.412;2023-02-16T18:11:20;99787.81;;;-4.93;61.93
69035;BME280;56091;55.756;37.412;2023-02-16T18:16:25;99778.88;;;-5.19;62.05
69035;BME280;56091;55.756;37.412;2023-02-16T18:21:26;99802.56;;;-5.19;61.97
69035;BME280;56091;55.756;37.412;2023-02-16T18:26:27;99799.22;;;-5.12;61.48
69035;BME280;56091;55.756;37.412;2023-02-16T18:31:32;99802.53;;;-5.10;61.25
69035;BME280;56091;55.756;37.412;2023-02-16T18:36:36;99796.88;;;-5.15;61.03
69035;BME280;56091;55.756;37.412;2023-02-16T18:41:37;99777.78;;;-5.26;60.84
69035;BME280;56091;55.756;37.412;2023-02-16T18:46:38;99804.66;;;-5.33;60.79
69035;BME280;56091;55.756;37.412;2023-02-16T18:51:39;99801.88;;;-5.60;61.68
69035;BME280;56091;55.756;37.412;2023-02-16T18:56:41;99797.56;;;-5.71;62.22
69035;BME280;56091;55.756;37.412;2023-02-16T19:01:41;99799.94;;;-5.78;62.65
69035;BME280;56091;55.756;37.412;2023-02-16T19:06:43;99793.03;;;-5.69;63.08
69035;BME280;56091;55.756;37.412;2023-02-16T19:11:44;99786.66;;;-5.47;62.38
69035;BME280;56091;55.756;37.412;2023-02-16T19:16:45;99786.50;;;-5.36;61.79
69035;BME280;56091;55.756;37.412;2023-02-16T19:21:46;99796.47;;;-5.39;61.74
69035;BME280;56091;55.756;37.412;2023-02-16T19:26:47;99782.38;;;-5.38;61.53
69035;BME280;56091;55.756;37.412;2023-02-16T19:31:48;99787.63;;;-5.58;61.95
69035;BME280;56091;55.756;37.412;2023-02-16T19:36:49;99782.91;;;-5.64;62.13
69035;BME280;56091;55.756;37.412;2023-02-16T19:41:50;99783.59;;;-5.72;62.25
69035;BME280;56091;55.756;37.412;2023-02-16T19:46:53;99784.97;;;-5.77;62.29
69035;BME280;56091;55.756;37.412;2023-02-16T19:51:54;99742.25;;;-5.89;62.15
69035;BME280;56091;55.756;37.412;2023-02-16T19:56:55;99789.00;;;-5.44;61.84
69035;BME280;56091;55.756;37.412;2023-02-16T20:01:57;99788.44;;;-5.28;61.20
69035;BME280;56091;55.756;37.412;2023-02-16T20:06:58;99795.75;;;-5.22;61.14
69035;BME280;56091;55.756;37.412;2023-02-16T20:12:03;99791.19;;;-5.20;60.87
69035;BME280;56091;55.756;37.412;2023-02-16T20:17:04;99784.53;;;-5.14;60.85
69035;BME280;56091;55.756;37.412;2023-02-16T20:22:05;99778.44;;;-5.15;60.31
69035;BME280;56091;55.756;37.412;2023-02-16T20:27:05;99773.31;;;-5.16;60.60
69035;BME280;56091;55.756;37.412;2023-02-16T20:32:06;99778.72;;;-5.08;60.58
69035;BME280;56091;55.756;37.412;2023-02-16T20:37:07;99784.94;;;-5.09;60.46
69035;BME280;56091;55.756;37.412;2023-02-16T20:42:08;99779.44;;;-5.16;60.49
69035;BME280;56091;55.756;37.412;2023-02-16T20:47:09;99772.25;;;-5.23;60.52
69035;BME280;56091;55.756;37.412;2023-02-16T20:52:10;99772.47;;;-5.07;60.30
69035;BME280;56091;55.756;37.412;2023-02-16T20:57:11;99783.53;;;-5.03;60.94
69035;BME280;56091;55.756;37.412;2023-02-16T21:02:12;99784.78;;;-4.98;60.74
69035;BME280;56091;55.756;37.412;2023-02-16T21:07:13;99765.25;;;-5.05;60.78
69035;BME280;56091;55.756;37.412;2023-02-16T21:12:15;99772.06;;;-5.02;60.46
69035;BME280;56091;55.756;37.412;2023-02-16T21:17:16;99759.88;;;-5.13;60.59
69035;BME280;56091;55.756;37.412;2023-02-16T21:22:20;99763.63;;;-5.06;60.46
69035;BME280;56091;55.756;37.412;2023-02-16T21:27:21;99770.81;;;-4.98;60.61
69035;BME280;56091;55.756;37.412;2023-02-16T21:32:23;99774.66;;;-4.93;60.01
69035;BME280;56091;55.756;37.412;2023-02-16T21:37:24;99762.47;;;-4.94;60.46
69035;BME280;56091;55.756;37.412;2023-02-16T21:42:24;99772.19;;;-5.04;60.15
69035;BME280;56091;55.756;37.412;2023-02-16T21:47:25;99770.56;;;-5.15;60.42
69035;BME280;56091;55.756;37.412;2023-02-16T21:52:44;99753.13;;;-5.35;60.70
69035;BME280;56091;55.756;37.412;2023-02-16T21:57:46;99749.25;;;-5.21;60.93
69035;BME280;56091;55.756;37.412;2023-02-16T22:02:47;99762.63;;;-5.05;60.28
69035;BME280;56091;55.756;37.412;2023-02-16T22:07:47;99765.03;;;-5.12;60.43
69035;BME280;56091;55.756;37.412;2023-02-16T22:12:48;99757.53;;;-5.16;60.57
69035;BME280;56091;55.756;37.412;2023-02-16T22:17:49;99771.75;;;-4.99;60.25
69035;BME280;56091;55.756;37.412;2023-02-16T22:22:51;99761.22;;;-4.99;60.18
69035;BME280;56091;55.756;37.412;2023-02-16T22:27:52;99761.38;;;-5.01;60.14
69035;BME280;56091;55.756;37.412;2023-02-16T22:32:57;99769.97;;;-4.99;60.54
69035;BME280;56091;55.756;37.412;2023-02-16T22:37:58;99748.94;;;-5.08;60.61
69035;BME280;56091;55.756;37.412;2023-02-16T22:42:58;99766.63;;;-5.01;60.36
69035;BME280;56091;55.756;37.412;2023-02-16T22:47:59;99735.94;;;-5.10;60.22
69035;BME280;56091;55.756;37.412;2023-02-16T22:53:00;99746.19;;;-5.17;60.44
69035;BME280;56091;55.756;37.412;2023-02-16T22:58:01;99751.19;;;-5.23;60.78
69035;BME280;56091;55.756;37.412;2023-02-16T23:03:02;99744.53;;;-5.27;60.86
69035;BME280;56091;55.756;37.412;2023-02-16T23:08:06;99753.25;;;-5.17;60.86
69035;BME280;56091;55.756;37.412;2023-02-16T23:13:08;99747.19;;;-5.37;60.84
69035;BME280;56091;55.756;37.412;2023-02-16T23:18:09;99747.88;;;-5.16;60.63
69035;BME280;56091;55.756;37.412;2023-02-16T23:23:09;99733.59;;;-5.13;60.02
69035;BME280;56091;55.756;37.412;2023-02-16T23:28:10;99742.84;;;-5.09;59.43
69035;BME280;56091;55.756;37.412;2023-02-16T23:33:11;99742.47;;;-5.24;60.13
69035;BME280;56091;55.756;37.412;2023-02-16T23:38:13;99743.97;;;-5.12;60.24
69035;BME280;56091;55.756;37.412;2023-02-16T23:43:14;99733.97;;;-4.98;60.42
69035;BME280;56091;55.756;37.412;2023-02-16T23:48:14;99733.81;;;-4.97;60.02
69035;BME280;56091;55.756;37.412;2023-02-16T23:53:16;99745.03;;;-4.95;60.36
69035;BME280;56091;55.756;37.412;2023-02-16T23:58:17;99745.03;;;-4.95;60.34
